Assumption, Nebraska
Current Conditions -  °F | °C
As of 9:53 AM on Wednesday 28 Jan 2015 (Local Time) from KHSI Reporting Station
Clear Clear  
Wind Chill: 34°   Ceiling: Unl
Heat Index: 38°   Visibility: 10mi
Dew Point: 31°   Wind: 5mph
Humidity: 76%   Direction: 280°W
Pressure: 29.8"   Gusts: NA
Location:  40.5679°N, 98.5535°W
Report Text: KHSI 281553Z AUTO 28004KT 10SM CLR 03/M01 A2980 RMK AO2 SLP099 T00331006
Loading
Personal Weather Stations






























Interactive Weather Map New forecast layout! Learn more

10-Day Weather Forecast

Advertisements
Track Severe Weather on mobile